createdAt,value
2022-12-18T18:18:02.097Z,17.23
2022-12-18T18:20:30.532Z,16.45
2022-12-18T18:22:57.117Z,15.00
2022-12-18T18:25:23.739Z,14.65
2022-12-18T18:27:50.804Z,16.38
2022-12-18T18:30:17.437Z,20.35
2022-12-18T18:32:46.254Z,16.88
2022-12-18T18:35:44.667Z,15.75
2022-12-18T18:37:59.586Z,15.57
2022-12-18T18:40:26.209Z,17.05
2022-12-18T18:42:55.908Z,29.00
2022-12-18T18:45:22.476Z,21.35
2022-12-18T18:47:49.088Z,16.90
2022-12-18T18:50:15.891Z,15.98
2022-12-18T18:52:42.558Z,15.70
2022-12-18T18:55:16.256Z,15.38
2022-12-18T18:57:52.302Z,16.15
2022-12-18T19:00:19.165Z,15.40
2022-12-18T19:02:46.220Z,17.92
2022-12-18T19:05:12.947Z,13.75
2022-12-18T19:07:39.599Z,15.13
2022-12-18T19:10:06.762Z,17.83
2022-12-18T19:12:53.179Z,14.80
2022-12-18T19:15:19.974Z,15.27
2022-12-18T19:17:47.455Z,15.57
2022-12-18T19:20:15.222Z,14.35
2022-12-18T19:22:42.046Z,14.05
2022-12-18T19:25:09.931Z,14.63
2022-12-18T19:27:38.916Z,13.77
2022-12-18T19:30:06.040Z,13.82
2022-12-18T19:32:34.050Z,17.52
2022-12-18T19:35:00.647Z,16.48
2022-12-18T19:37:28.152Z,13.20
2022-12-18T19:39:55.416Z,14.40
2022-12-18T19:42:28.056Z,12.73
2022-12-18T19:44:58.604Z,13.50
2022-12-18T19:47:25.527Z,13.70
2022-12-18T19:49:52.142Z,14.60
2022-12-18T19:52:18.803Z,13.13
2022-12-18T19:54:45.492Z,13.60
2022-12-18T19:57:12.530Z,15.27
2022-12-18T19:59:39.167Z,14.20
2022-12-18T20:02:13.342Z,14.18
2022-12-18T20:04:40.067Z,15.10
2022-12-18T20:07:06.799Z,14.82
2022-12-18T20:09:33.526Z,14.88
2022-12-18T20:12:00.383Z,14.35
2022-12-18T20:14:26.987Z,15.23
2022-12-18T20:16:54.374Z,13.45
2022-12-18T20:19:22.171Z,17.98
2022-12-18T20:21:49.239Z,16.70
2022-12-18T20:24:15.894Z,18.00
2022-12-18T20:26:42.481Z,17.55
2022-12-18T20:29:09.365Z,18.27
2022-12-18T20:31:35.987Z,16.55
2022-12-18T20:34:04.869Z,16.42
2022-12-18T20:36:35.246Z,16.63
2022-12-18T20:39:05.428Z,17.42
2022-12-18T20:41:37.332Z,17.08
2022-12-18T20:44:09.571Z,16.73
2022-12-18T20:46:50.623Z,15.45
2022-12-18T20:49:17.296Z,18.17
2022-12-18T20:51:43.967Z,15.90
2022-12-18T20:54:12.012Z,16.45
2022-12-18T20:56:38.696Z,15.75
2022-12-18T20:59:05.218Z,16.67
2022-12-18T21:01:31.891Z,15.55
2022-12-18T21:03:59.157Z,16.58
2022-12-18T21:06:26.489Z,11.98
2022-12-18T21:08:53.049Z,14.82
2022-12-18T21:11:37.853Z,12.98
2022-12-18T21:14:12.069Z,12.63
2022-12-18T21:16:40.150Z,12.52
2022-12-18T21:19:07.072Z,13.65
2022-12-18T21:21:36.542Z,13.23
2022-12-18T21:24:05.992Z,10.77
2022-12-18T21:26:32.881Z,11.27
2022-12-18T21:29:01.976Z,10.38
2022-12-18T21:31:34.225Z,10.02
2022-12-18T21:34:02.477Z,9.27
2022-12-18T21:36:30.194Z,10.35
2022-12-18T21:38:58.010Z,9.95
2022-12-18T21:41:43.812Z,10.95
2022-12-18T21:44:15.714Z,8.07
2022-12-18T21:46:51.500Z,8.27
2022-12-18T21:49:23.127Z,8.82
2022-12-18T21:51:51.713Z,8.98
2022-12-18T21:54:19.602Z,11.77
2022-12-18T21:56:56.132Z,8.13
2022-12-18T21:59:34.500Z,10.15
2022-12-18T22:02:09.900Z,9.65
2022-12-18T22:04:36.797Z,10.02
2022-12-18T22:07:05.158Z,10.13
2022-12-18T22:09:32.207Z,10.37
2022-12-18T22:11:59.200Z,9.38
2022-12-18T22:14:25.982Z,9.52
2022-12-18T22:16:52.882Z,11.50
2022-12-18T22:19:20.340Z,11.25
2022-12-18T22:21:48.710Z,10.63
2022-12-18T22:24:18.023Z,10.13
2022-12-18T22:26:46.556Z,10.38
2022-12-18T22:29:37.362Z,10.98
2022-12-18T22:32:05.321Z,12.07
2022-12-18T22:34:36.611Z,11.07
2022-12-18T22:37:04.045Z,11.98
2022-12-18T22:39:31.395Z,12.90
2022-12-18T22:41:58.638Z,12.45
2022-12-18T22:44:25.571Z,10.70
2022-12-18T22:47:05.746Z,9.95
2022-12-18T22:49:35.377Z,10.30
2022-12-18T22:52:03.719Z,9.80
2022-12-18T22:54:30.343Z,10.15
2022-12-18T22:56:57.125Z,10.43
2022-12-18T22:59:24.119Z,11.00
2022-12-18T23:01:58.647Z,10.70
2022-12-18T23:04:31.995Z,10.55
2022-12-18T23:07:05.242Z,10.43
2022-12-18T23:09:32.233Z,10.20
2022-12-18T23:11:59.052Z,11.35
2022-12-18T23:14:26.143Z,12.02
2022-12-18T23:16:53.148Z,13.02
2022-12-18T23:19:20.137Z,12.60
2022-12-18T23:21:47.675Z,12.57
2022-12-18T23:24:15.052Z,12.20
2022-12-18T23:26:42.873Z,12.18
2022-12-18T23:29:09.691Z,12.65
2022-12-18T23:31:38.629Z,11.85
2022-12-18T23:34:06.250Z,12.20
2022-12-18T23:36:38.417Z,11.27
2022-12-18T23:39:17.197Z,12.23
2022-12-18T23:41:56.455Z,11.73
2022-12-18T23:44:23.103Z,14.57
2022-12-18T23:46:49.802Z,11.98
2022-12-18T23:49:16.498Z,11.35
2022-12-18T23:51:43.492Z,12.55
2022-12-18T23:54:10.772Z,11.75
2022-12-18T23:56:37.693Z,12.30
2022-12-18T23:59:04.669Z,12.05
